sensor_id;sensor_type;location;lat;lon;timestamp;pressure;altitude;pressure_sealevel;temperature;humidity
31183;BME280;17813;0.000;0.000;2023-04-21T08:26:30;99286.34;;;27.32;29.98
31183;BME280;17813;0.000;0.000;2023-04-21T08:29:00;99272.34;;;27.54;29.48
31183;BME280;17813;0.000;0.000;2023-04-21T08:31:30;99268.56;;;28.08;29.81
31183;BME280;17813;0.000;0.000;2023-04-21T08:34:00;99274.63;;;28.30;28.83
31183;BME280;17813;0.000;0.000;2023-04-21T08:36:29;99274.84;;;27.43;27.24
31183;BME280;17813;0.000;0.000;2023-04-21T08:38:59;99283.44;;;26.79;28.57
31183;BME280;17813;0.000;0.000;2023-04-21T08:41:42;99259.41;;;26.35;28.09
31183;BME280;17813;0.000;0.000;2023-04-21T08:44:09;99264.16;;;25.98;30.31
31183;BME280;17813;0.000;0.000;2023-04-21T08:46:39;99276.78;;;26.40;28.87
31183;BME280;17813;0.000;0.000;2023-04-21T08:49:09;99265.59;;;26.63;27.69
31183;BME280;17813;0.000;0.000;2023-04-21T08:51:48;99277.06;;;26.52;29.47
31183;BME280;17813;0.000;0.000;2023-04-21T08:54:33;99271.03;;;27.17;28.82
31183;BME280;17813;0.000;0.000;2023-04-21T08:57:14;99270.91;;;27.65;28.21
31183;BME280;17813;0.000;0.000;2023-04-21T08:59:44;99271.94;;;27.64;27.80
31183;BME280;17813;0.000;0.000;2023-04-21T09:02:20;99265.41;;;27.32;27.43
31183;BME280;17813;0.000;0.000;2023-04-21T09:04:51;99267.66;;;27.09;27.68
31183;BME280;17813;0.000;0.000;2023-04-21T09:07:36;99277.16;;;26.72;27.87
31183;BME280;17813;0.000;0.000;2023-04-21T09:10:11;99272.63;;;26.44;27.94
31183;BME280;17813;0.000;0.000;2023-04-21T09:12:44;99260.34;;;26.20;29.02
31183;BME280;17813;0.000;0.000;2023-04-21T09:15:22;99277.13;;;26.31;27.95
31183;BME280;17813;0.000;0.000;2023-04-21T09:17:55;99271.56;;;26.11;29.21
31183;BME280;17813;0.000;0.000;2023-04-21T09:20:27;99262.75;;;26.37;29.14
31183;BME280;17813;0.000;0.000;2023-04-21T09:22:54;99257.19;;;26.51;28.15
31183;BME280;17813;0.000;0.000;2023-04-21T09:25:22;99266.50;;;26.83;28.94
31183;BME280;17813;0.000;0.000;2023-04-21T09:27:48;99260.78;;;27.19;27.97
31183;BME280;17813;0.000;0.000;2023-04-21T09:30:18;99254.91;;;27.16;27.74
31183;BME280;17813;0.000;0.000;2023-04-21T09:32:48;99254.91;;;27.09;28.63
31183;BME280;17813;0.000;0.000;2023-04-21T09:35:19;99253.91;;;27.43;27.72
31183;BME280;17813;0.000;0.000;2023-04-21T09:37:55;99245.53;;;27.71;27.13
31183;BME280;17813;0.000;0.000;2023-04-21T09:40:30;99247.16;;;27.26;27.58
31183;BME280;17813;0.000;0.000;2023-04-21T09:42:59;99254.38;;;26.79;27.24
31183;BME280;17813;0.000;0.000;2023-04-21T09:45:28;99263.13;;;26.75;28.41
31183;BME280;17813;0.000;0.000;2023-04-21T09:48:01;99247.59;;;26.62;28.75
31183;BME280;17813;0.000;0.000;2023-04-21T09:50:35;99246.56;;;26.63;27.94
31183;BME280;17813;0.000;0.000;2023-04-21T09:53:07;99251.38;;;26.61;29.34
31183;BME280;17813;0.000;0.000;2023-04-21T09:55:38;99257.06;;;26.73;27.43
31183;BME280;17813;0.000;0.000;2023-04-21T09:58:15;99249.19;;;26.43;28.02
31183;BME280;17813;0.000;0.000;2023-04-21T10:00:48;99246.09;;;26.46;27.84
31183;BME280;17813;0.000;0.000;2023-04-21T10:03:30;99239.22;;;26.57;28.73
31183;BME280;17813;0.000;0.000;2023-04-21T10:06:07;99239.22;;;26.57;28.22
31183;BME280;17813;0.000;0.000;2023-04-21T10:08:37;99241.28;;;27.03;29.14
31183;BME280;17813;0.000;0.000;2023-04-21T10:11:06;99247.78;;;27.08;27.47
31183;BME280;17813;0.000;0.000;2023-04-21T10:13:39;99239.56;;;26.41;27.34
31183;BME280;17813;0.000;0.000;2023-04-21T10:19:50;99230.97;;;26.03;28.06
31183;BME280;17813;0.000;0.000;2023-04-21T10:22:32;99226.66;;;26.15;28.33
31183;BME280;17813;0.000;0.000;2023-04-21T10:25:08;99229.00;;;26.24;27.48
31183;BME280;17813;0.000;0.000;2023-04-21T10:27:42;99240.28;;;25.93;27.92
31183;BME280;17813;0.000;0.000;2023-04-21T10:30:22;99220.69;;;25.70;28.98
31183;BME280;17813;0.000;0.000;2023-04-21T10:33:05;99236.41;;;26.03;28.54
31183;BME280;17813;0.000;0.000;2023-04-21T10:35:59;99224.53;;;25.82;28.49
31183;BME280;17813;0.000;0.000;2023-04-21T10:38:40;99223.09;;;25.58;28.08
31183;BME280;17813;0.000;0.000;2023-04-21T10:41:56;99218.63;;;25.51;27.94
31183;BME280;17813;0.000;0.000;2023-04-21T10:45:06;99212.19;;;25.30;29.52
31183;BME280;17813;0.000;0.000;2023-04-21T10:47:46;99218.50;;;24.95;29.53
31183;BME280;17813;0.000;0.000;2023-04-21T10:50:28;99217.22;;;24.91;30.12
31183;BME280;17813;0.000;0.000;2023-04-21T10:53:16;99215.63;;;25.18;29.07
31183;BME280;17813;0.000;0.000;2023-04-21T10:55:48;99213.59;;;24.48;29.42
31183;BME280;17813;0.000;0.000;2023-04-21T10:58:16;99223.72;;;24.39;31.61
31183;BME280;17813;0.000;0.000;2023-04-21T11:00:47;99219.78;;;23.97;30.31
31183;BME280;17813;0.000;0.000;2023-04-21T11:03:21;99207.25;;;23.67;30.19
31183;BME280;17813;0.000;0.000;2023-04-21T11:05:56;99204.75;;;23.20;31.35
31183;BME280;17813;0.000;0.000;2023-04-21T11:08:27;99219.69;;;22.93;32.29
31183;BME280;17813;0.000;0.000;2023-04-21T11:11:03;99212.09;;;22.88;31.62
31183;BME280;17813;0.000;0.000;2023-04-21T11:13:31;99211.75;;;22.91;31.82
31183;BME280;17813;0.000;0.000;2023-04-21T11:16:06;99206.91;;;22.78;31.93
31183;BME280;17813;0.000;0.000;2023-04-21T11:18:44;99208.88;;;22.31;32.22
31183;BME280;17813;0.000;0.000;2023-04-21T11:21:25;99206.28;;;22.06;33.42
31183;BME280;17813;0.000;0.000;2023-04-21T11:24:00;99195.31;;;22.39;33.52
31183;BME280;17813;0.000;0.000;2023-04-21T11:26:36;99209.63;;;22.48;32.87
31183;BME280;17813;0.000;0.000;2023-04-21T11:29:22;99204.19;;;22.56;33.53
31183;BME280;17813;0.000;0.000;2023-04-21T11:31:52;99196.31;;;22.69;32.51
31183;BME280;17813;0.000;0.000;2023-04-21T11:34:25;99198.84;;;22.70;33.11
31183;BME280;17813;0.000;0.000;2023-04-21T11:36:54;99192.16;;;22.89;32.32
31183;BME280;17813;0.000;0.000;2023-04-21T11:39:32;99187.13;;;22.86;31.52
31183;BME280;17813;0.000;0.000;2023-04-21T11:42:00;99179.84;;;22.87;32.30
31183;BME280;17813;0.000;0.000;2023-04-21T11:44:42;99188.44;;;22.59;31.23
31183;BME280;17813;0.000;0.000;2023-04-21T11:49:48;99188.38;;;22.05;32.58
31183;BME280;17813;0.000;0.000;2023-04-21T11:55:10;99186.41;;;22.30;32.49
31183;BME280;17813;0.000;0.000;2023-04-21T11:57:40;99174.97;;;21.73;32.53
31183;BME280;17813;0.000;0.000;2023-04-21T12:00:12;99178.31;;;21.83;32.28
31183;BME280;17813;0.000;0.000;2023-04-21T12:02:43;99168.66;;;21.89;32.38
31183;BME280;17813;0.000;0.000;2023-04-21T12:05:17;99163.06;;;22.06;32.46
31183;BME280;17813;0.000;0.000;2023-04-21T12:07:47;99166.22;;;22.18;32.30
31183;BME280;17813;0.000;0.000;2023-04-21T12:10:29;99171.75;;;22.25;33.11
31183;BME280;17813;0.000;0.000;2023-04-21T12:13:27;99170.19;;;21.91;31.85
31183;BME280;17813;0.000;0.000;2023-04-21T12:15:55;99159.50;;;21.59;32.35
31183;BME280;17813;0.000;0.000;2023-04-21T12:18:26;99157.59;;;21.67;33.78
31183;BME280;17813;0.000;0.000;2023-04-21T12:21:01;99157.75;;;21.74;34.19
31183;BME280;17813;0.000;0.000;2023-04-21T12:23:29;99170.53;;;21.88;32.57
31183;BME280;17813;0.000;0.000;2023-04-21T12:25:57;99155.94;;;21.66;32.06
31183;BME280;17813;0.000;0.000;2023-04-21T12:28:25;99149.69;;;21.66;32.75
31183;BME280;17813;0.000;0.000;2023-04-21T12:30:54;99156.53;;;21.85;32.46
31183;BME280;17813;0.000;0.000;2023-04-21T12:33:23;99152.09;;;22.00;32.16
31183;BME280;17813;0.000;0.000;2023-04-21T12:35:52;99146.81;;;22.14;32.54
31183;BME280;17813;0.000;0.000;2023-04-21T12:38:20;99152.75;;;22.10;32.27
31183;BME280;17813;0.000;0.000;2023-04-21T12:40:49;99147.03;;;22.05;32.06
31183;BME280;17813;0.000;0.000;2023-04-21T12:43:18;99147.38;;;21.94;32.15
31183;BME280;17813;0.000;0.000;2023-04-21T12:45:46;99148.41;;;21.93;32.18
31183;BME280;17813;0.000;0.000;2023-04-21T12:48:18;99145.78;;;21.68;32.80
31183;BME280;17813;0.000;0.000;2023-04-21T12:51:13;99127.59;;;21.62;32.93
31183;BME280;17813;0.000;0.000;2023-04-21T12:54:02;99142.78;;;21.63;34.11
31183;BME280;17813;0.000;0.000;2023-04-21T12:56:33;99138.66;;;21.83;32.84
31183;BME280;17813;0.000;0.000;2023-04-21T12:59:07;99139.31;;;21.86;32.24
31183;BME280;17813;0.000;0.000;2023-04-21T13:01:50;99142.69;;;21.88;32.99
31183;BME280;17813;0.000;0.000;2023-04-21T13:04:17;99132.69;;;21.96;32.44
31183;BME280;17813;0.000;0.000;2023-04-21T13:06:47;99140.50;;;21.83;32.51
31183;BME280;17813;0.000;0.000;2023-04-21T13:09:22;99119.16;;;21.65;32.38
31183;BME280;17813;0.000;0.000;2023-04-21T13:11:49;99130.13;;;21.64;32.59
31183;BME280;17813;0.000;0.000;2023-04-21T13:14:18;99120.56;;;21.53;32.68
31183;BME280;17813;0.000;0.000;2023-04-21T13:16:46;99115.13;;;21.61;32.85
31183;BME280;17813;0.000;0.000;2023-04-21T13:19:35;99109.03;;;21.67;32.78
31183;BME280;17813;0.000;0.000;2023-04-21T13:22:02;99104.81;;;21.65;31.70
31183;BME280;17813;0.000;0.000;2023-04-21T13:24:30;99118.03;;;21.43;33.03
31183;BME280;17813;0.000;0.000;2023-04-21T13:27:02;99111.19;;;21.25;32.15
31183;BME280;17813;0.000;0.000;2023-04-21T13:29:32;99103.03;;;21.41;32.63
31183;BME280;17813;0.000;0.000;2023-04-21T13:32:01;99110.44;;;21.55;33.39
31183;BME280;17813;0.000;0.000;2023-04-21T13:34:33;99136.03;;;21.59;31.89
31183;BME280;17813;0.000;0.000;2023-04-21T13:37:02;99089.34;;;21.59;31.82
31183;BME280;17813;0.000;0.000;2023-04-21T13:39:32;99096.97;;;21.47;32.40
31183;BME280;17813;0.000;0.000;2023-04-21T13:42:14;99077.59;;;21.35;31.83
31183;BME280;17813;0.000;0.000;2023-04-21T13:44:47;99088.06;;;21.38;32.17
31183;BME280;17813;0.000;0.000;2023-04-21T13:47:15;99080.75;;;21.55;32.48
31183;BME280;17813;0.000;0.000;2023-04-21T13:49:59;99083.06;;;21.66;32.17
31183;BME280;17813;0.000;0.000;2023-04-21T13:52:27;99074.25;;;21.72;32.23
31183;BME280;17813;0.000;0.000;2023-04-21T13:54:54;99081.88;;;21.69;33.47
31183;BME280;17813;0.000;0.000;2023-04-21T13:57:59;99067.69;;;21.75;31.69
31183;BME280;17813;0.000;0.000;2023-04-21T14:00:48;99077.50;;;21.68;31.24
31183;BME280;17813;0.000;0.000;2023-04-21T14:03:19;99071.94;;;21.61;31.36
31183;BME280;17813;0.000;0.000;2023-04-21T14:05:46;99068.94;;;21.56;30.99
31183;BME280;17813;0.000;0.000;2023-04-21T14:08:13;99060.34;;;21.53;31.06
31183;BME280;17813;0.000;0.000;2023-04-21T14:10:40;99052.09;;;21.54;31.56
31183;BME280;17813;0.000;0.000;2023-04-21T14:13:08;99057.97;;;21.58;32.00
31183;BME280;17813;0.000;0.000;2023-04-21T14:15:36;99060.41;;;21.75;31.54
31183;BME280;17813;0.000;0.000;2023-04-21T14:18:04;99050.78;;;21.81;32.40
31183;BME280;17813;0.000;0.000;2023-04-21T14:20:37;99048.97;;;21.73;32.01
31183;BME280;17813;0.000;0.000;2023-04-21T14:23:18;99044.25;;;21.67;32.02
31183;BME280;17813;0.000;0.000;2023-04-21T14:25:58;99051.16;;;21.70;31.42
31183;BME280;17813;0.000;0.000;2023-04-21T14:28:27;99044.66;;;21.56;31.96
31183;BME280;17813;0.000;0.000;2023-04-21T14:30:55;99042.41;;;21.68;32.39
31183;BME280;17813;0.000;0.000;2023-04-21T14:33:24;99036.53;;;21.64;32.63
31183;BME280;17813;0.000;0.000;2023-04-21T14:35:51;99043.84;;;21.47;31.97
31183;BME280;17813;0.000;0.000;2023-04-21T14:38:18;99038.00;;;21.28;32.67
31183;BME280;17813;0.000;0.000;2023-04-21T14:40:50;99042.56;;;21.27;33.04
31183;BME280;17813;0.000;0.000;2023-04-21T14:43:26;99031.97;;;21.09;33.72
31183;BME280;17813;0.000;0.000;2023-04-21T14:46:00;99024.91;;;21.00;34.26
31183;BME280;17813;0.000;0.000;2023-04-21T14:48:28;99026.97;;;20.90;34.91
31183;BME280;17813;0.000;0.000;2023-04-21T14:50:55;99028.94;;;21.04;33.79
31183;BME280;17813;0.000;0.000;2023-04-21T14:53:27;99031.50;;;20.98;34.47
31183;BME280;17813;0.000;0.000;2023-04-21T14:55:58;99042.47;;;20.88;34.68
31183;BME280;17813;0.000;0.000;2023-04-21T14:58:30;99038.75;;;20.81;34.65
31183;BME280;17813;0.000;0.000;2023-04-21T15:00:57;99020.38;;;20.68;34.48
31183;BME280;17813;0.000;0.000;2023-04-21T15:03:23;99033.53;;;20.63;34.96
31183;BME280;17813;0.000;0.000;2023-04-21T15:05:56;99019.88;;;20.65;34.89
31183;BME280;17813;0.000;0.000;2023-04-21T15:08:26;99025.09;;;20.74;34.61
31183;BME280;17813;0.000;0.000;2023-04-21T15:10:58;99020.41;;;20.84;34.47
31183;BME280;17813;0.000;0.000;2023-04-21T15:13:28;99022.22;;;20.76;34.51
31183;BME280;17813;0.000;0.000;2023-04-21T15:15:55;99007.25;;;20.90;34.91
31183;BME280;17813;0.000;0.000;2023-04-21T15:18:21;99011.44;;;21.00;35.42
31183;BME280;17813;0.000;0.000;2023-04-21T15:20:49;99004.69;;;21.04;34.38
31183;BME280;17813;0.000;0.000;2023-04-21T15:23:17;99011.09;;;21.03;34.54
31183;BME280;17813;0.000;0.000;2023-04-21T15:25:50;99005.53;;;21.05;34.16
31183;BME280;17813;0.000;0.000;2023-04-21T15:28:20;99004.63;;;21.21;34.82
31183;BME280;17813;0.000;0.000;2023-04-21T15:30:46;99000.78;;;21.23;34.10
31183;BME280;17813;0.000;0.000;2023-04-21T15:33:13;98991.50;;;21.26;34.51
31183;BME280;17813;0.000;0.000;2023-04-21T15:35:40;99004.97;;;21.34;34.54
31183;BME280;17813;0.000;0.000;2023-04-21T15:38:08;98997.91;;;21.25;33.97
31183;BME280;17813;0.000;0.000;2023-04-21T15:40:35;98999.25;;;21.21;34.28
31183;BME280;17813;0.000;0.000;2023-04-21T15:43:11;98988.00;;;21.09;34.14
31183;BME280;17813;0.000;0.000;2023-04-21T15:45:39;98997.97;;;21.00;34.82
31183;BME280;17813;0.000;0.000;2023-04-21T15:48:14;98995.47;;;20.91;35.21
31183;BME280;17813;0.000;0.000;2023-04-21T15:50:44;98997.31;;;20.90;35.61
31183;BME280;17813;0.000;0.000;2023-04-21T15:53:11;98985.69;;;20.90;34.53
31183;BME280;17813;0.000;0.000;2023-04-21T15:55:38;98995.97;;;20.86;34.53
31183;BME280;17813;0.000;0.000;2023-04-21T15:58:27;98989.91;;;20.84;35.30
31183;BME280;17813;0.000;0.000;2023-04-21T16:00:56;98991.41;;;20.78;35.63
31183;BME280;17813;0.000;0.000;2023-04-21T16:03:28;98988.38;;;20.73;35.71
31183;BME280;17813;0.000;0.000;2023-04-21T16:05:54;98987.72;;;20.71;35.40
31183;BME280;17813;0.000;0.000;2023-04-21T16:08:22;98985.88;;;20.64;35.87
31183;BME280;17813;0.000;0.000;2023-04-21T16:10:52;98985.56;;;20.50;35.13
31183;BME280;17813;0.000;0.000;2023-04-21T16:13:20;98976.28;;;20.53;35.71
31183;BME280;17813;0.000;0.000;2023-04-21T16:15:48;98985.22;;;20.45;35.94
31183;BME280;17813;0.000;0.000;2023-04-21T16:18:17;98985.22;;;20.53;35.69
31183;BME280;17813;0.000;0.000;2023-04-21T16:20:47;98983.69;;;20.51;35.74
31183;BME280;17813;0.000;0.000;2023-04-21T16:23:16;98973.44;;;20.46;36.21
31183;BME280;17813;0.000;0.000;2023-04-21T16:25:43;98978.13;;;20.36;36.07
31183;BME280;17813;0.000;0.000;2023-04-21T16:28:13;98980.66;;;20.30;36.72
31183;BME280;17813;0.000;0.000;2023-04-21T16:30:41;98975.09;;;20.23;37.18
31183;BME280;17813;0.000;0.000;2023-04-21T16:33:10;98974.94;;;20.24;37.52
31183;BME280;17813;0.000;0.000;2023-04-21T16:35:37;98975.44;;;20.12;37.42
31183;BME280;17813;0.000;0.000;2023-04-21T16:38:04;98972.41;;;20.07;37.77
31183;BME280;17813;0.000;0.000;2023-04-21T16:40:32;98970.03;;;20.12;37.73
31183;BME280;17813;0.000;0.000;2023-04-21T16:43:00;98973.41;;;20.14;37.58
31183;BME280;17813;0.000;0.000;2023-04-21T16:45:29;98969.53;;;20.08;37.59
31183;BME280;17813;0.000;0.000;2023-04-21T16:47:56;98965.34;;;20.06;37.99
31183;BME280;17813;0.000;0.000;2023-04-21T16:50:23;98962.66;;;20.06;37.94
31183;BME280;17813;0.000;0.000;2023-04-21T16:52:50;98965.84;;;20.01;37.84
31183;BME280;17813;0.000;0.000;2023-04-21T16:55:19;98964.66;;;19.87;38.05
31183;BME280;17813;0.000;0.000;2023-04-21T16:57:46;98966.50;;;19.87;37.97
31183;BME280;17813;0.000;0.000;2023-04-21T17:00:14;98970.50;;;19.75;38.38
31183;BME280;17813;0.000;0.000;2023-04-21T17:02:42;98965.47;;;19.72;38.56
31183;BME280;17813;0.000;0.000;2023-04-21T17:05:09;98968.81;;;19.66;38.98
31183;BME280;17813;0.000;0.000;2023-04-21T17:07:39;98972.81;;;19.53;38.85
31183;BME280;17813;0.000;0.000;2023-04-21T17:10:10;98967.22;;;19.47;38.60
31183;BME280;17813;0.000;0.000;2023-04-21T17:12:38;98966.19;;;19.40;37.79
31183;BME280;17813;0.000;0.000;2023-04-21T17:15:09;98964.97;;;19.34;37.87
31183;BME280;17813;0.000;0.000;2023-04-21T17:17:44;98965.28;;;19.23;38.51
31183;BME280;17813;0.000;0.000;2023-04-21T17:20:14;98966.09;;;19.15;38.36
31183;BME280;17813;0.000;0.000;2023-04-21T17:23:05;98973.97;;;19.09;38.08
31183;BME280;17813;0.000;0.000;2023-04-21T17:25:33;98958.16;;;19.06;38.03
31183;BME280;17813;0.000;0.000;2023-04-21T17:28:04;98961.66;;;18.98;38.62
31183;BME280;17813;0.000;0.000;2023-04-21T17:30:31;98959.28;;;18.95;38.39
31183;BME280;17813;0.000;0.000;2023-04-21T17:33:01;98958.59;;;18.93;38.42
31183;BME280;17813;0.000;0.000;2023-04-21T17:35:27;98964.59;;;18.87;38.84
31183;BME280;17813;0.000;0.000;2023-04-21T17:37:59;98967.09;;;18.80;39.06
31183;BME280;17813;0.000;0.000;2023-04-21T17:40:26;98961.50;;;18.74;39.13
31183;BME280;17813;0.000;0.000;2023-04-21T17:42:54;98964.31;;;18.64;39.55
31183;BME280;17813;0.000;0.000;2023-04-21T17:45:26;98964.75;;;18.59;39.56
31183;BME280;17813;0.000;0.000;2023-04-21T17:47:54;98959.47;;;18.50;39.92
31183;BME280;17813;0.000;0.000;2023-04-21T17:50:30;98961.41;;;18.40;40.02
31183;BME280;17813;0.000;0.000;2023-04-21T17:53:00;98963.50;;;18.28;40.65
31183;BME280;17813;0.000;0.000;2023-04-21T17:55:29;98960.63;;;18.21;40.38
31183;BME280;17813;0.000;0.000;2023-04-21T17:57:56;98967.41;;;18.16;40.69
31183;BME280;17813;0.000;0.000;2023-04-21T18:00:34;98966.28;;;18.00;41.06
31183;BME280;17813;0.000;0.000;2023-04-21T18:03:02;98969.56;;;17.94;41.28
31183;BME280;17813;0.000;0.000;2023-04-21T18:05:32;98976.38;;;17.71;41.79
31183;BME280;17813;0.000;0.000;2023-04-21T18:08:02;98979.94;;;17.62;42.07
31183;BME280;17813;0.000;0.000;2023-04-21T18:10:31;98979.84;;;17.54;42.12
31183;BME280;17813;0.000;0.000;2023-04-21T18:13:01;98977.78;;;17.48;41.92
31183;BME280;17813;0.000;0.000;2023-04-21T18:15:28;98981.34;;;17.39;42.51
31183;BME280;17813;0.000;0.000;2023-04-21T18:17:59;98980.03;;;17.25;42.83
31183;BME280;17813;0.000;0.000;2023-04-21T18:20:26;98982.06;;;17.13;42.65
31183;BME280;17813;0.000;0.000;2023-04-21T18:22:52;98984.72;;;17.13;43.16
31183;BME280;17813;0.000;0.000;2023-04-21T18:25:19;98988.28;;;17.04;43.17
31183;BME280;17813;0.000;0.000;2023-04-21T18:27:48;98983.81;;;16.95;43.31
31183;BME280;17813;0.000;0.000;2023-04-21T18:30:17;98995.84;;;16.81;43.41
31183;BME280;17813;0.000;0.000;2023-04-21T18:32:44;98996.59;;;16.74;43.61
31183;BME280;17813;0.000;0.000;2023-04-21T18:35:11;98985.03;;;16.54;44.02
31183;BME280;17813;0.000;0.000;2023-04-21T18:37:39;98992.81;;;16.47;44.03
31183;BME280;17813;0.000;0.000;2023-04-21T18:40:07;98990.69;;;16.41;44.10
31183;BME280;17813;0.000;0.000;2023-04-21T18:42:35;98996.91;;;16.32;44.31
31183;BME280;17813;0.000;0.000;2023-04-21T18:45:07;98992.53;;;16.31;44.07
31183;BME280;17813;0.000;0.000;2023-04-21T18:47:37;98995.09;;;16.23;44.56
31183;BME280;17813;0.000;0.000;2023-04-21T18:50:09;99000.03;;;16.08;44.60
31183;BME280;17813;0.000;0.000;2023-04-21T18:52:36;98999.19;;;16.07;44.99
31183;BME280;17813;0.000;0.000;2023-04-21T18:55:05;99003.97;;;16.04;44.72
31183;BME280;17813;0.000;0.000;2023-04-21T18:57:35;98997.34;;;15.98;45.21
31183;BME280;17813;0.000;0.000;2023-04-21T19:00:04;98996.66;;;15.96;45.18
31183;BME280;17813;0.000;0.000;2023-04-21T19:02:33;99003.25;;;15.92;45.41
31183;BME280;17813;0.000;0.000;2023-04-21T19:05:00;99000.31;;;15.95;45.21
31183;BME280;17813;0.000;0.000;2023-04-21T19:07:30;98997.06;;;15.82;45.38
31183;BME280;17813;0.000;0.000;2023-04-21T19:10:08;99000.72;;;15.81;45.84
31183;BME280;17813;0.000;0.000;2023-04-21T19:12:41;98998.88;;;15.82;45.57
31183;BME280;17813;0.000;0.000;2023-04-21T19:15:09;98996.63;;;15.77;45.98
31183;BME280;17813;0.000;0.000;2023-04-21T19:17:36;98996.78;;;15.75;45.67
31183;BME280;17813;0.000;0.000;2023-04-21T19:20:03;98992.13;;;15.68;46.10
31183;BME280;17813;0.000;0.000;2023-04-21T19:22:31;98998.41;;;15.57;46.46
31183;BME280;17813;0.000;0.000;2023-04-21T19:25:04;98999.50;;;15.55;46.40
31183;BME280;17813;0.000;0.000;2023-04-21T19:27:37;98994.41;;;15.52;46.22
31183;BME280;17813;0.000;0.000;2023-04-21T19:30:08;98995.09;;;15.44;46.53
31183;BME280;17813;0.000;0.000;2023-04-21T19:32:40;98992.00;;;15.39;46.66
31183;BME280;17813;0.000;0.000;2023-04-21T19:35:10;98993.13;;;15.36;46.71
31183;BME280;17813;0.000;0.000;2023-04-21T19:37:42;98999.00;;;15.30;46.64
31183;BME280;17813;0.000;0.000;2023-04-21T19:40:12;98998.28;;;15.28;46.71
31183;BME280;17813;0.000;0.000;2023-04-21T19:42:40;98995.31;;;15.22;46.72
31183;BME280;17813;0.000;0.000;2023-04-21T19:45:09;99005.44;;;15.18;47.11
31183;BME280;17813;0.000;0.000;2023-04-21T19:47:39;99005.25;;;15.10;47.46
31183;BME280;17813;0.000;0.000;2023-04-21T19:50:08;99005.47;;;14.97;47.69
31183;BME280;17813;0.000;0.000;2023-04-21T19:52:39;99008.56;;;14.93;47.29
31183;BME280;17813;0.000;0.000;2023-04-21T19:55:20;99009.88;;;14.77;47.68
31183;BME280;17813;0.000;0.000;2023-04-21T19:57:50;99008.31;;;14.75;47.82
31183;BME280;17813;0.000;0.000;2023-04-21T20:00:19;99005.78;;;14.73;47.85
31183;BME280;17813;0.000;0.000;2023-04-21T20:02:52;99006.25;;;14.78;47.59
31183;BME280;17813;0.000;0.000;2023-04-21T20:05:28;99003.69;;;14.77;47.86
31183;BME280;17813;0.000;0.000;2023-04-21T20:07:56;99001.03;;;14.77;47.41
31183;BME280;17813;0.000;0.000;2023-04-21T20:10:25;98997.38;;;14.78;47.24
31183;BME280;17813;0.000;0.000;2023-04-21T20:12:59;98995.56;;;14.78;47.40
31183;BME280;17813;0.000;0.000;2023-04-21T20:15:27;98999.38;;;14.86;47.08
31183;BME280;17813;0.000;0.000;2023-04-21T20:17:55;98995.59;;;14.88;47.24
31183;BME280;17813;0.000;0.000;2023-04-21T20:20:24;99003.75;;;14.87;46.94
31183;BME280;17813;0.000;0.000;2023-04-21T20:22:59;99003.56;;;14.78;47.76
31183;BME280;17813;0.000;0.000;2023-04-21T20:25:28;99003.66;;;14.67;47.86
31183;BME280;17813;0.000;0.000;2023-04-21T20:27:58;99015.22;;;14.36;50.67
31183;BME280;17813;0.000;0.000;2023-04-21T20:30:27;99019.44;;;14.18;50.61
31183;BME280;17813;0.000;0.000;2023-04-21T20:32:55;99027.78;;;13.92;50.78
31183;BME280;17813;0.000;0.000;2023-04-21T20:35:24;99036.56;;;13.72;51.20
31183;BME280;17813;0.000;0.000;2023-04-21T20:37:54;99034.66;;;13.51;51.88
31183;BME280;17813;0.000;0.000;2023-04-21T20:40:21;99042.19;;;13.35;52.50
31183;BME280;17813;0.000;0.000;2023-04-21T20:42:49;99039.19;;;13.17;52.47
31183;BME280;17813;0.000;0.000;2023-04-21T20:45:19;99036.00;;;13.01;52.85
31183;BME280;17813;0.000;0.000;2023-04-21T20:47:49;99045.28;;;12.84;53.37
31183;BME280;17813;0.000;0.000;2023-04-21T20:50:17;99042.59;;;12.73;53.78
31183;BME280;17813;0.000;0.000;2023-04-21T20:52:47;99042.69;;;12.61;53.97
31183;BME280;17813;0.000;0.000;2023-04-21T20:55:21;99044.72;;;12.46;54.20
31183;BME280;17813;0.000;0.000;2023-04-21T20:57:51;99046.50;;;12.34;54.59
31183;BME280;17813;0.000;0.000;2023-04-21T21:00:24;99050.19;;;12.20;55.19
31183;BME280;17813;0.000;0.000;2023-04-21T21:02:55;99058.34;;;12.06;55.80
31183;BME280;17813;0.000;0.000;2023-04-21T21:05:25;99059.88;;;11.98;56.01
31183;BME280;17813;0.000;0.000;2023-04-21T21:07:54;99065.03;;;11.88;56.33
31183;BME280;17813;0.000;0.000;2023-04-21T21:10:24;99066.44;;;11.81;56.05
31183;BME280;17813;0.000;0.000;2023-04-21T21:12:52;99063.34;;;11.74;55.97
31183;BME280;17813;0.000;0.000;2023-04-21T21:15:26;99068.50;;;11.65;56.49
31183;BME280;17813;0.000;0.000;2023-04-21T21:17:57;99070.63;;;11.59;56.52
31183;BME280;17813;0.000;0.000;2023-04-21T21:20:24;99077.22;;;11.54;56.87
31183;BME280;17813;0.000;0.000;2023-04-21T21:22:51;99071.72;;;11.44;56.98
31183;BME280;17813;0.000;0.000;2023-04-21T21:25:18;99067.31;;;11.32;57.67
31183;BME280;17813;0.000;0.000;2023-04-21T21:27:45;99070.50;;;11.24;58.09
31183;BME280;17813;0.000;0.000;2023-04-21T21:30:12;99070.00;;;11.07;59.84
31183;BME280;17813;0.000;0.000;2023-04-21T21:32:39;99068.19;;;10.94;59.36
31183;BME280;17813;0.000;0.000;2023-04-21T21:35:06;99071.28;;;10.76;60.67
31183;BME280;17813;0.000;0.000;2023-04-21T21:37:35;99072.22;;;10.62;62.15
31183;BME280;17813;0.000;0.000;2023-04-21T21:40:03;99080.38;;;10.59;61.57
31183;BME280;17813;0.000;0.000;2023-04-21T21:42:34;99074.53;;;10.41;62.69
31183;BME280;17813;0.000;0.000;2023-04-21T21:45:11;99073.53;;;10.29;63.43
31183;BME280;17813;0.000;0.000;2023-04-21T21:47:38;99080.19;;;10.22;63.55
31183;BME280;17813;0.000;0.000;2023-04-21T21:50:10;99074.50;;;10.14;63.15
31183;BME280;17813;0.000;0.000;2023-04-21T21:52:41;99072.78;;;10.00;64.29
31183;BME280;17813;0.000;0.000;2023-04-21T21:55:09;99081.50;;;9.88;64.90
31183;BME280;17813;0.000;0.000;2023-04-21T21:57:39;99080.50;;;9.77;64.82
31183;BME280;17813;0.000;0.000;2023-04-21T22:00:10;99093.88;;;9.61;66.10
31183;BME280;17813;0.000;0.000;2023-04-21T22:02:48;99092.13;;;9.47;67.42
31183;BME280;17813;0.000;0.000;2023-04-21T22:05:17;99094.47;;;9.52;66.31
31183;BME280;17813;0.000;0.000;2023-04-21T22:07:48;99095.50;;;9.49;65.94